CheckWX is a tool to help pilots better visualize weather data.  It is not intended as a substitute for an official pre-flight weather briefing.

07:29:11 UTC

FQNC TAF
Nacala Airport
Nacala, Mozambique
TAF FQNC 200400Z 2006/2106 22008KT 9999 BKN020 TX25/2013Z TN15/2103Z BECMG 2012/2014 16012KT BECMG 2018/2020 22008KT

Jun-20@
06:00 UTC

Jun-20 @ 06:00 UTC

Jun-20@
12:00 UTC

Jun-20 @ 12:00 UTC

TAF FQNC 200400Z 2006/2106 22008KT 9999 BKN020 TX25/2013Z TN15/2103Z
Wind
  • 220° at 8 KTS
Cloud Levels
  • Broken at 2,000' AGL

Jun-20@
12:00 UTC

Jun-20 @ 12:00 UTC

Jun-20@
18:00 UTC

Jun-20 @ 18:00 UTC

BECMG 2012/2014 16012KT

Becoming

Becoming Conditions expected by Thu, Jun 20, 2019 @ 14:00 UTC

Wind
  • 160° at 12 KTS
Cloud Levels
  • Broken at 2,000' AGL

Jun-20@
18:00 UTC

Jun-20 @ 18:00 UTC

Jun-21@
06:00 UTC

Jun-21 @ 06:00 UTC

BECMG 2018/2020 22008KT

Becoming

Becoming Conditions expected by Thu, Jun 20, 2019 @ 20:00 UTC

Wind
  • 220° at 8 KTS
Cloud Levels
  • Broken at 2,000' AGL